»·PEaware :: SKW393 KSFO-KSLC

SKW393 :: KSFO-KSLC

FLIGHT INFORMATION

Flight Status: Arrived
Operator:
SkyWest Airlines
More flights by this operator :: More flights under this callsign
Pilot: Jamie M. (16133)
Aircraft: CANADAIR CL-600 CRJ-700
(CRJ7)
More flights by this aircraft type
Origin: KSFO San Francisco Intl
United States
Destination: KSLC Salt Lake City Intl
United States
More flights between these airports :: More routes between these airports
Route: TRUKN2 MOGEE Q124 BVL WAATS5
File this flight plan on PilotEdge
Remarks: PBN / D1 DOF / 180112 REG / N353JM EET / KZLC0038 OPR / SKW PER / C RMK / TCAS SIMBRIEF
Altitude:
(Current/Filed)
37,000ft
Speed:
(Current/Filed)
428kts
Departed: 12-Jan-18 05:50 PM
Arrived: 12-Jan-18 07:19 PM
Distance/Time
Traveled:
519nm/1:28
Distance/Time
To Go:
Arrived

Flight Plot

Page will automatically refresh every two minutes.

Flight plan parsing failed; only flown route is shown


Map Options




Map Legend


Flown Route
Filed Route
Departure Airport
Arrival Airport
Navaid (VOR, NDB)
Fix

Horizontal Profiles

Position Reports

Time Latitude Longitude Heading Altitude Ground
Speed
12-Jan-18 17:03 37.613329 -122.383676 211 19ft 0kts
12-Jan-18 17:04 37.613329 -122.383676 211 19ft 0kts
12-Jan-18 17:05 37.613329 -122.383676 211 19ft 0kts
12-Jan-18 17:06 37.613329 -122.383676 211 19ft 0kts
12-Jan-18 17:07 37.613329 -122.383676 211 19ft 0kts
12-Jan-18 17:08 37.613329 -122.383676 211 19ft 0kts
12-Jan-18 17:09 37.613329 -122.383676 211 19ft 0kts
12-Jan-18 17:10 37.613329 -122.383676 211 19ft 0kts
12-Jan-18 17:11 37.613329 -122.383676 211 19ft 0kts
12-Jan-18 17:12 37.613329 -122.383676 211 19ft 0kts
12-Jan-18 17:13 37.613329 -122.383676 211 19ft 0kts
12-Jan-18 17:14 37.613329 -122.383676 211 19ft 0kts
12-Jan-18 17:15 37.613329 -122.383676 211 19ft 0kts
12-Jan-18 17:16 37.613329 -122.383676 211 19ft 0kts
12-Jan-18 17:17 37.613329 -122.383676 211 19ft 0kts
12-Jan-18 17:18 37.613329 -122.383676 211 19ft 0kts
12-Jan-18 17:19 37.613329 -122.383676 211 19ft 0kts
12-Jan-18 17:20 37.613329 -122.383676 211 19ft 0kts
12-Jan-18 17:21 37.613329 -122.383676 211 19ft 0kts
12-Jan-18 17:22 37.613329 -122.383676 211 19ft 0kts
12-Jan-18 17:23 37.613329 -122.383676 211 19ft 0kts
12-Jan-18 17:24 37.613329 -122.383676 211 19ft 0kts
12-Jan-18 17:25 37.613329 -122.383676 211 19ft 0kts
12-Jan-18 17:26 37.613329 -122.383676 211 19ft 0kts
12-Jan-18 17:27 37.613329 -122.383676 211 19ft 0kts
12-Jan-18 17:28 37.613329 -122.383676 211 19ft 0kts
12-Jan-18 17:29 37.613329 -122.383676 211 19ft 0kts
12-Jan-18 17:30 37.613329 -122.383676 211 19ft 0kts
12-Jan-18 17:31 37.613329 -122.383676 211 19ft 0kts
12-Jan-18 17:32 37.613329 -122.383676 211 19ft 0kts
12-Jan-18 17:33 37.613329 -122.383676 211 19ft 0kts
12-Jan-18 17:34 37.613329 -122.383676 211 19ft 0kts
12-Jan-18 17:35 37.613329 -122.383676 211 19ft 0kts
12-Jan-18 17:36 37.613329 -122.383676 211 19ft 0kts
12-Jan-18 17:37 37.613329 -122.383676 211 19ft 0kts
12-Jan-18 17:38 37.613340 -122.383667 211 19ft 1kts
12-Jan-18 17:39 37.613918 -122.383523 153 19ft 2kts
12-Jan-18 17:40 37.614081 -122.383773 117 19ft 0kts
12-Jan-18 17:41 37.614080 -122.383771 117 19ft 0kts
12-Jan-18 17:42 37.614079 -122.383769 117 19ft 0kts
12-Jan-18 17:43 37.614078 -122.383767 117 19ft 0kts
12-Jan-18 17:44 37.614077 -122.383764 117 19ft 0kts
12-Jan-18 17:45 37.614076 -122.383762 117 19ft 0kts
12-Jan-18 17:46 37.614075 -122.383760 117 19ft 0kts
12-Jan-18 17:47 37.614074 -122.383757 117 19ft 0kts
12-Jan-18 17:48 37.613579 -122.382502 116 19ft 4kts
12-Jan-18 17:49 37.610810 -122.383508 207 19ft 11kts
12-Jan-18 17:50 37.609120 -122.384825 197 19ft 8kts
12-Jan-18 17:51 37.605870 -122.383471 111 19ft 11kts
12-Jan-18 17:52 37.606746 -122.381846 106 19ft 0kts
12-Jan-18 17:53 37.606745 -122.381844 106 19ft 0kts
12-Jan-18 17:54 37.606744 -122.381841 106 19ft 0kts
12-Jan-18 17:55 37.606753 -122.380771 29 19ft 0kts
12-Jan-18 17:56 37.627150 -122.366718 30 892ft 153kts
12-Jan-18 17:57 37.657106 -122.335339 75 3613ft 169kts
12-Jan-18 17:58 37.680082 -122.284639 45 5468ft 187kts
12-Jan-18 17:59 37.714431 -122.223925 50 7342ft 248kts
12-Jan-18 18:00 37.760622 -122.149702 46 10078ft 276kts
12-Jan-18 18:01 37.816073 -122.067306 47 11988ft 327kts
12-Jan-18 18:02 37.876563 -121.975767 47 14479ft 348kts
12-Jan-18 18:03 37.940125 -121.880108 47 17006ft 367kts
12-Jan-18 18:04 38.007853 -121.777670 47 19355ft 383kts
12-Jan-18 18:05 38.077044 -121.672354 47 21637ft 397kts
12-Jan-18 18:06 38.149117 -121.562676 48 23718ft 410kts
12-Jan-18 18:07 38.220620 -121.453551 48 25609ft 422kts
12-Jan-18 18:08 38.299199 -121.333043 47 27452ft 432kts
12-Jan-18 18:09 38.376716 -121.213750 47 29093ft 442kts
12-Jan-18 18:10 38.455106 -121.092890 47 30841ft 444kts
12-Jan-18 18:11 38.533021 -120.971767 47 32790ft 434kts
12-Jan-18 18:12 38.608348 -120.853895 46 34177ft 430kts
12-Jan-18 18:13 38.685608 -120.734203 46 35230ft 431kts
12-Jan-18 18:14 38.761092 -120.615722 46 36134ft 431kts
12-Jan-18 18:15 38.837082 -120.496547 46 36955ft 431kts
12-Jan-18 18:16 38.913016 -120.376874 46 37436ft 437kts
12-Jan-18 18:17 38.989749 -120.254934 46 37470ft 440kts
12-Jan-18 18:18 39.044834 -120.167217 46 37479ft 441kts
12-Jan-18 18:19 39.137106 -120.019442 46 37493ft 440kts
12-Jan-18 18:20 39.213285 -119.897312 45 37501ft 438kts
12-Jan-18 18:21 39.290283 -119.773358 45 37505ft 437kts
12-Jan-18 18:22 39.366279 -119.650838 45 37501ft 438kts
12-Jan-18 18:23 39.442361 -119.527099 45 37497ft 439kts
12-Jan-18 18:24 39.517506 -119.404544 45 37492ft 439kts
12-Jan-18 18:25 39.593712 -119.280030 45 37489ft 440kts
12-Jan-18 18:26 39.670005 -119.154731 45 37487ft 440kts
12-Jan-18 18:27 39.745929 -119.029345 45 37486ft 440kts
12-Jan-18 18:28 39.819694 -118.907729 45 37485ft 440kts
12-Jan-18 18:29 39.892498 -118.775254 49 37483ft 431kts
12-Jan-18 18:30 39.948887 -118.640447 56 37482ft 423kts
12-Jan-18 18:31 40.002972 -118.507308 53 37481ft 407kts
12-Jan-18 18:32 40.055432 -118.377484 54 37481ft 394kts
12-Jan-18 18:33 40.104947 -118.254655 53 37482ft 379kts
12-Jan-18 18:34 40.153601 -118.133681 53 37482ft 364kts
12-Jan-18 18:35 40.198495 -118.020923 54 37483ft 348kts
12-Jan-18 18:36 40.228152 -117.898543 65 37483ft 339kts
12-Jan-18 18:37 40.251507 -117.797918 62 37482ft 318kts
12-Jan-18 18:38 40.280015 -117.676039 62 37491ft 315kts
12-Jan-18 18:39 40.306028 -117.563824 63 37496ft 330kts
12-Jan-18 18:40 40.331458 -117.452031 63 37498ft 348kts
12-Jan-18 18:41 40.356408 -117.343142 63 37500ft 366kts
12-Jan-18 18:42 40.392259 -117.185632 64 37502ft 396kts
12-Jan-18 18:43 40.419035 -117.067279 65 37503ft 420kts
12-Jan-18 18:44 40.459163 -116.887646 65 37504ft 455kts
12-Jan-18 18:45 40.489420 -116.751900 66 37502ft 469kts
12-Jan-18 18:46 40.532197 -116.558279 66 37499ft 474kts
12-Jan-18 18:47 40.562784 -116.419613 67 37494ft 476kts
12-Jan-18 18:48 40.580440 -116.218491 79 37487ft 485kts
12-Jan-18 18:49 40.591320 -116.082857 75 37482ft 482kts
12-Jan-18 18:50 40.605543 -115.893743 77 37476ft 483kts
12-Jan-18 18:51 40.618411 -115.719864 76 37472ft 467kts
12-Jan-18 18:52 40.630340 -115.552844 76 37472ft 449kts
12-Jan-18 18:53 40.641728 -115.392275 76 37474ft 441kts
12-Jan-18 18:54 40.652973 -115.230394 76 37476ft 447kts
12-Jan-18 18:55 40.663896 -115.067647 76 37477ft 454kts
12-Jan-18 18:56 40.675483 -114.897616 76 37478ft 460kts
12-Jan-18 18:57 40.686159 -114.728802 76 37480ft 465kts
12-Jan-18 18:58 40.696767 -114.559153 76 37480ft 463kts
12-Jan-18 18:59 40.704682 -114.391439 78 37086ft 441kts
12-Jan-18 19:00 40.710263 -114.234365 77 34824ft 423kts
12-Jan-18 19:01 40.715546 -114.078915 78 31776ft 424kts
12-Jan-18 19:02 40.720995 -113.926167 78 28555ft 417kts
12-Jan-18 19:03 40.726000 -113.768312 81 24767ft 443kts
12-Jan-18 19:04 40.726299 -113.610425 84 22575ft 425kts
12-Jan-18 19:05 40.726009 -113.456148 84 20418ft 409kts
12-Jan-18 19:06 40.725301 -113.308583 85 18445ft 396kts
12-Jan-18 19:07 40.724840 -113.162411 86 17026ft 417kts
12-Jan-18 19:08 40.723924 -113.013710 86 17011ft 390kts
12-Jan-18 19:09 40.722887 -112.874168 86 17022ft 371kts
12-Jan-18 19:10 40.721882 -112.742459 86 16981ft 347kts
12-Jan-18 19:11 40.720670 -112.615081 86 15468ft 352kts
12-Jan-18 19:12 40.723715 -112.489083 72 14111ft 321kts
12-Jan-18 19:13 40.745316 -112.379008 74 12706ft 305kts
12-Jan-18 19:14 40.761958 -112.274055 74 11905ft 267kts
12-Jan-18 19:15 40.766031 -112.181761 90 11857ft 264kts
12-Jan-18 19:16 40.732447 -112.103717 144 10841ft 264kts
12-Jan-18 19:17 40.663147 -112.080368 176 9226ft 251kts
12-Jan-18 19:18 40.596275 -112.074152 174 9034ft 241kts
12-Jan-18 19:19 40.560176 -112.015044 83 8411ft 236kts
12-Jan-18 19:20 40.604429 -111.973777 349 7415ft 229kts
12-Jan-18 19:21 40.667356 -111.983164 355 6031ft 222kts
12-Jan-18 19:22 40.718705 -111.989476 352 5403ft 144kts
12-Jan-18 19:23 40.756124 -111.993499 353 4689ft 130kts
12-Jan-18 19:24 40.786233 -111.996782 354 4234ft 45kts
12-Jan-18 19:25 40.791073 -111.996127 82 4234ft 3kts
12-Jan-18 19:26 40.791014 -111.992576 82 4234ft 9kts
12-Jan-18 19:27 40.791361 -111.987336 84 4234ft 1kts
12-Jan-18 19:28 40.790606 -111.984439 175 4234ft 13kts
12-Jan-18 19:29 40.789192 -111.979791 175 4234ft 16kts
12-Jan-18 19:30 40.787374 -111.978753 150 4234ft 0kts
12-Jan-18 19:31 40.787373 -111.978753 150 4234ft 0kts
12-Jan-18 19:32 40.787373 -111.978753 150 4234ft 0kts

Navigation Log

Ident Type
Flight plan parsing failed, navigation log unavailable